createdAt,value
2018-02-10T00:01:27.302Z,51.03
2018-02-10T00:03:59.061Z,40.05
2018-02-10T00:06:30.016Z,47.40
2018-02-10T00:09:00.931Z,52.25
2018-02-10T00:11:36.488Z,47.75
2018-02-10T00:14:09.870Z,50.28
2018-02-10T00:16:42.539Z,48.78
2018-02-10T00:19:14.988Z,49.17
2018-02-10T00:21:46.560Z,43.80
2018-02-10T00:24:19.246Z,43.72
2018-02-10T00:26:52.401Z,45.40
2018-02-10T00:29:23.772Z,46.58
2018-02-10T00:31:55.398Z,44.17
2018-02-10T00:34:27.266Z,44.40
2018-02-10T00:37:00.377Z,43.45
2018-02-10T00:39:35.629Z,47.75
2018-02-10T00:42:08.861Z,48.65
2018-02-10T00:44:41.126Z,47.10
2018-02-10T00:47:13.743Z,41.37
2018-02-10T00:49:49.556Z,44.33
2018-02-10T00:52:23.677Z,45.47
2018-02-10T00:54:56.629Z,43.67
2018-02-10T01:00:03.064Z,39.50
2018-02-10T01:02:35.329Z,40.33
2018-02-10T01:05:11.775Z,40.08
2018-02-10T01:07:42.610Z,41.70
2018-02-10T01:10:17.871Z,37.90
2018-02-10T01:12:51.884Z,40.67
2018-02-10T01:15:25.778Z,32.80
2018-02-10T01:18:00.622Z,43.25
2018-02-10T01:20:32.614Z,43.22
2018-02-10T01:23:05.780Z,39.28
2018-02-10T01:25:40.072Z,42.62
2018-02-10T01:28:11.025Z,41.25
2018-02-10T01:30:44.680Z,44.30
2018-02-10T01:33:14.718Z,33.30
2018-02-10T01:35:49.089Z,42.03
2018-02-10T01:38:20.214Z,36.20
2018-02-10T01:40:52.378Z,34.83
2018-02-10T01:43:25.468Z,41.53
2018-02-10T01:46:05.647Z,36.67
2018-02-10T01:48:37.551Z,39.05
2018-02-10T01:51:09.047Z,35.33
2018-02-10T01:53:42.025Z,32.88
2018-02-10T01:56:15.050Z,31.70
2018-02-10T01:58:46.175Z,32.83
2018-02-10T02:01:20.701Z,35.83
2018-02-10T02:03:53.818Z,38.92
2018-02-10T02:06:25.815Z,31.87
2018-02-10T02:08:57.363Z,32.15
2018-02-10T02:11:28.866Z,36.40
2018-02-10T02:14:02.181Z,30.45
2018-02-10T02:16:36.408Z,29.12
2018-02-10T02:19:14.868Z,29.15
2018-02-10T02:21:47.719Z,30.02
2018-02-10T02:24:22.136Z,31.42
2018-02-10T02:26:55.222Z,28.12
2018-02-10T02:29:31.775Z,28.67
2018-02-10T02:32:05.789Z,29.75
2018-02-10T02:34:41.809Z,29.30
2018-02-10T02:37:15.562Z,31.30
2018-02-10T02:39:52.114Z,26.77
2018-02-10T02:42:25.386Z,37.05
2018-02-10T02:45:00.054Z,27.27
2018-02-10T02:47:34.723Z,28.70
2018-02-10T02:50:08.218Z,25.25
2018-02-10T02:52:36.354Z,27.23
2018-02-10T02:55:08.467Z,28.55
2018-02-10T02:57:39.116Z,32.33
2018-02-10T03:00:09.618Z,35.90
2018-02-10T03:02:40.796Z,32.15
2018-02-10T03:05:12.475Z,28.00
2018-02-10T03:07:50.188Z,31.67
2018-02-10T03:10:24.067Z,29.80
2018-02-10T03:12:56.262Z,35.33
2018-02-10T03:15:29.964Z,29.60
2018-02-10T03:18:04.820Z,29.67
2018-02-10T03:20:37.950Z,29.48
2018-02-10T03:23:09.977Z,28.75
2018-02-10T03:25:39.913Z,25.08
2018-02-10T03:28:11.984Z,26.83
2018-02-10T03:30:45.338Z,32.35
2018-02-10T03:33:17.812Z,34.13
2018-02-10T03:35:49.914Z,33.63
2018-02-10T03:38:21.357Z,27.85
2018-02-10T03:40:54.417Z,29.58
2018-02-10T03:43:25.152Z,28.77
2018-02-10T03:46:01.000Z,34.05
2018-02-10T03:48:35.150Z,29.52
2018-02-10T03:51:07.016Z,24.50
2018-02-10T03:53:40.092Z,27.60
2018-02-10T03:56:11.661Z,26.00
2018-02-10T03:58:43.608Z,36.47
2018-02-10T04:01:18.048Z,30.92
2018-02-10T04:03:49.972Z,21.77
2018-02-10T04:06:23.598Z,29.17
2018-02-10T04:08:59.083Z,25.67
2018-02-10T04:11:35.890Z,31.42
2018-02-10T04:14:09.608Z,23.92
2018-02-10T04:16:41.855Z,26.12
2018-02-10T04:19:16.511Z,27.02
2018-02-10T04:21:47.706Z,25.27
2018-02-10T04:24:21.686Z,25.77
2018-02-10T04:29:34.226Z,27.92
2018-02-10T04:32:07.838Z,26.15
2018-02-10T04:34:39.348Z,29.05
2018-02-10T04:37:10.919Z,24.90
2018-02-10T04:39:42.724Z,35.90
2018-02-10T04:42:14.313Z,28.50
2018-02-10T04:44:48.010Z,26.98
2018-02-10T04:47:21.932Z,28.27
2018-02-10T04:49:54.268Z,27.90
2018-02-10T04:52:26.748Z,27.13
2018-02-10T04:54:58.858Z,26.87
2018-02-10T04:57:31.934Z,30.37
2018-02-10T05:00:03.933Z,23.33
2018-02-10T05:02:37.255Z,25.85
2018-02-10T05:05:08.563Z,28.27
2018-02-10T05:07:41.087Z,27.37
2018-02-10T05:10:12.444Z,24.52
2018-02-10T05:12:44.073Z,27.73
2018-02-10T05:15:18.065Z,27.37
2018-02-10T05:17:50.456Z,28.25
2018-02-10T05:20:22.463Z,28.12
2018-02-10T05:22:54.125Z,24.37
2018-02-10T05:25:25.336Z,27.33
2018-02-10T05:27:56.515Z,24.98
2018-02-10T05:30:26.480Z,26.33
2018-02-10T05:32:59.587Z,23.60
2018-02-10T05:35:30.050Z,26.95
2018-02-10T05:38:05.322Z,23.30
2018-02-10T05:40:38.529Z,28.30
2018-02-10T05:43:13.921Z,27.83
2018-02-10T05:45:44.853Z,28.15
2018-02-10T05:48:17.907Z,22.45
2018-02-10T05:50:52.387Z,27.85
2018-02-10T05:53:24.616Z,25.55
2018-02-10T05:55:59.805Z,28.90
2018-02-10T05:58:31.335Z,31.37
2018-02-10T06:01:03.864Z,30.23
2018-02-10T06:03:36.993Z,26.45
2018-02-10T06:06:12.505Z,26.48
2018-02-10T06:08:43.942Z,28.80
2018-02-10T06:11:15.041Z,24.70
2018-02-10T06:13:46.448Z,25.05
2018-02-10T06:16:18.729Z,22.17
2018-02-10T06:18:55.033Z,24.40
2018-02-10T06:21:30.119Z,21.48
2018-02-10T06:24:00.864Z,17.90
2018-02-10T06:26:31.852Z,27.48
2018-02-10T06:29:04.602Z,31.80
2018-02-10T06:31:35.478Z,22.85
2018-02-10T06:34:07.030Z,25.95
2018-02-10T06:36:39.291Z,20.75
2018-02-10T06:39:12.656Z,22.13
2018-02-10T06:41:43.997Z,26.20
2018-02-10T06:44:19.293Z,20.25
2018-02-10T06:46:54.578Z,21.92
2018-02-10T06:49:26.677Z,17.83
2018-02-10T06:52:01.428Z,22.95
2018-02-10T06:54:34.889Z,16.87
2018-02-10T06:57:07.228Z,23.23
2018-02-10T06:59:40.982Z,23.00
2018-02-10T07:02:12.910Z,23.08
2018-02-10T07:04:46.335Z,28.58
2018-02-10T07:07:18.255Z,22.62
2018-02-10T07:09:54.080Z,21.65
2018-02-10T07:12:26.216Z,23.33
2018-02-10T07:14:58.734Z,23.35
2018-02-10T07:17:29.723Z,22.90
2018-02-10T07:20:04.724Z,18.90
2018-02-10T07:22:40.096Z,23.35
2018-02-10T07:25:13.510Z,29.60
2018-02-10T07:27:45.808Z,21.50
2018-02-10T07:30:18.284Z,25.52
2018-02-10T07:32:50.091Z,24.48
2018-02-10T07:35:22.377Z,27.62
2018-02-10T07:38:02.278Z,25.58
2018-02-10T07:40:36.533Z,26.42
2018-02-10T07:43:09.298Z,31.62
2018-02-10T07:45:42.224Z,38.58
2018-02-10T07:48:13.294Z,39.13
2018-02-10T07:50:44.926Z,52.53
2018-02-10T07:53:19.579Z,42.92
2018-02-10T07:55:52.375Z,45.88
2018-02-10T07:58:26.477Z,50.55
2018-02-10T08:00:57.073Z,48.58
2018-02-10T08:03:28.340Z,41.65
2018-02-10T08:05:58.888Z,38.85
2018-02-10T08:08:29.345Z,35.42
2018-02-10T08:11:00.498Z,37.47
2018-02-10T08:13:32.412Z,50.17
2018-02-10T08:16:04.054Z,40.78
2018-02-10T08:18:34.993Z,52.65
2018-02-10T08:21:04.823Z,51.20
2018-02-10T08:23:35.269Z,45.85
2018-02-10T08:26:05.014Z,44.05
2018-02-10T08:28:35.735Z,52.30
2018-02-10T08:31:08.213Z,47.97
2018-02-10T08:33:38.788Z,45.03
2018-02-10T08:36:12.566Z,48.58
2018-02-10T08:38:43.455Z,45.80
2018-02-10T08:41:13.720Z,39.40
2018-02-10T08:43:44.975Z,41.90
2018-02-10T08:46:16.353Z,39.35
2018-02-10T08:48:47.200Z,47.22
2018-02-10T08:51:19.028Z,42.58
2018-02-10T08:53:49.934Z,46.25
2018-02-10T08:56:22.568Z,43.53
2018-02-10T08:58:58.746Z,40.47
2018-02-10T09:01:26.715Z,41.83
2018-02-10T09:03:54.682Z,48.90
2018-02-10T09:06:24.537Z,41.70
2018-02-10T09:08:53.255Z,42.72
2018-02-10T09:11:21.218Z,42.15
2018-02-10T09:13:49.087Z,43.63
2018-02-10T09:16:17.078Z,48.90
2018-02-10T09:18:45.010Z,47.00
2018-02-10T09:21:12.910Z,58.65
2018-02-10T09:23:40.814Z,54.55
2018-02-10T09:26:08.780Z,72.05
2018-02-10T09:28:36.706Z,61.47
2018-02-10T09:31:04.611Z,60.38
2018-02-10T09:33:32.506Z,65.78
2018-02-10T09:36:01.175Z,63.25
2018-02-10T09:38:29.904Z,65.72
2018-02-10T09:40:57.810Z,62.53
2018-02-10T09:43:25.698Z,63.08
2018-02-10T09:45:54.363Z,60.00
2018-02-10T09:48:22.278Z,68.45
2018-02-10T09:50:50.178Z,70.57
2018-02-10T09:53:18.176Z,67.75
2018-02-10T09:55:46.046Z,56.80
2018-02-10T09:58:14.773Z,61.75
2018-02-10T10:00:42.715Z,74.32
2018-02-10T10:03:11.390Z,60.25
2018-02-10T10:05:40.071Z,65.43
2018-02-10T10:08:08.104Z,54.03
2018-02-10T10:10:36.823Z,58.63
2018-02-10T10:13:04.718Z,60.95
2018-02-10T10:15:32.610Z,69.07
2018-02-10T10:18:00.527Z,64.30
2018-02-10T10:20:28.426Z,65.47
2018-02-10T10:22:56.375Z,71.30
2018-02-10T10:25:25.089Z,67.70
2018-02-10T10:27:53.066Z,70.75
2018-02-10T10:30:20.932Z,80.50
2018-02-10T10:32:48.923Z,82.43
2018-02-10T10:35:16.837Z,83.78
2018-02-10T10:37:45.592Z,89.43
2018-02-10T10:40:13.578Z,69.35
2018-02-10T10:42:42.227Z,81.22
2018-02-10T10:45:10.222Z,92.55
2018-02-10T10:47:38.187Z,79.25
2018-02-10T10:50:06.129Z,76.78
2018-02-10T10:52:34.013Z,71.57
2018-02-10T10:55:01.955Z,91.12
2018-02-10T10:57:29.847Z,83.32
2018-02-10T10:59:57.723Z,82.30
2018-02-10T11:02:25.647Z,89.28
2018-02-10T11:04:53.559Z,83.65
2018-02-10T11:07:21.476Z,93.70
2018-02-10T11:09:49.384Z,89.87
2018-02-10T11:12:17.259Z,83.62
2018-02-10T11:14:45.227Z,79.20
2018-02-10T11:17:13.186Z,90.20
2018-02-10T11:19:41.056Z,86.93
2018-02-10T11:22:08.975Z,94.15
2018-02-10T11:24:36.866Z,82.97
2018-02-10T11:27:04.784Z,80.00
2018-02-10T11:29:33.440Z,85.95
2018-02-10T11:32:01.348Z,90.35
2018-02-10T11:34:30.095Z,90.70
2018-02-10T11:36:58.081Z,96.43
2018-02-10T11:39:26.073Z,81.07
2018-02-10T11:41:54.730Z,95.00
2018-02-10T11:44:22.679Z,105.00
2018-02-10T11:46:50.631Z,106.40
2018-02-10T11:49:18.649Z,114.50
2018-02-10T11:51:47.304Z,99.70
2018-02-10T11:54:15.272Z,105.47
2018-02-10T11:56:43.172Z,112.47
2018-02-10T11:59:11.825Z,114.45
2018-02-10T12:01:39.804Z,103.75
2018-02-10T12:04:07.735Z,92.75
2018-02-10T12:06:35.611Z,103.05
2018-02-10T12:09:03.654Z,98.82
2018-02-10T12:11:31.528Z,114.50
2018-02-10T12:13:59.506Z,110.70
2018-02-10T12:16:27.457Z,100.10
2018-02-10T12:18:55.400Z,106.37
2018-02-10T12:21:24.089Z,105.43
2018-02-10T12:23:52.752Z,118.35
2018-02-10T12:26:20.655Z,108.87
2018-02-10T12:28:48.550Z,112.20
2018-02-10T12:31:16.516Z,102.97
2018-02-10T12:33:44.386Z,111.68
2018-02-10T12:36:12.305Z,105.90
2018-02-10T12:38:41.102Z,99.50
2018-02-10T12:41:09.792Z,111.32
2018-02-10T12:43:37.755Z,111.88
2018-02-10T12:46:06.449Z,102.72
2018-02-10T12:48:39.912Z,114.37
2018-02-10T12:51:07.796Z,100.68
2018-02-10T12:53:36.455Z,118.78
2018-02-10T12:56:04.459Z,101.40
2018-02-10T12:58:33.138Z,93.60
2018-02-10T13:01:01.875Z,102.87
2018-02-10T13:03:29.780Z,100.75
2018-02-10T13:05:57.703Z,71.35
2018-02-10T13:08:25.658Z,109.93
2018-02-10T13:10:53.573Z,98.63
2018-02-10T13:13:21.485Z,98.60
2018-02-10T13:15:49.393Z,112.80
2018-02-10T13:18:17.628Z,84.93
2018-02-10T13:20:45.592Z,89.87
2018-02-10T13:23:14.241Z,84.73
2018-02-10T13:25:42.147Z,88.33
2018-02-10T13:28:10.210Z,80.47
2018-02-10T13:30:38.095Z,81.63
2018-02-10T13:33:06.015Z,90.03
2018-02-10T13:35:33.986Z,95.75
2018-02-10T13:38:02.684Z,89.77
2018-02-10T13:40:31.387Z,92.90
2018-02-10T13:42:59.267Z,74.55
2018-02-10T13:45:27.176Z,95.40
2018-02-10T13:47:55.102Z,90.27
2018-02-10T13:50:22.972Z,89.25
2018-02-10T13:52:50.969Z,85.60
2018-02-10T13:55:18.852Z,73.23
2018-02-10T13:57:46.758Z,75.30
2018-02-10T14:00:14.810Z,79.30
2018-02-10T14:02:43.474Z,92.57
2018-02-10T14:05:11.356Z,93.37
2018-02-10T14:07:39.298Z,84.27
2018-02-10T14:10:07.265Z,79.73
2018-02-10T14:12:36.654Z,81.33
2018-02-10T14:15:04.609Z,75.93
2018-02-10T14:17:32.564Z,79.47
2018-02-10T14:20:00.557Z,81.00
2018-02-10T14:22:28.701Z,69.50
2018-02-10T14:24:56.672Z,78.97
2018-02-10T14:27:24.587Z,64.47
2018-02-10T14:29:52.667Z,72.03
2018-02-10T14:32:20.581Z,71.90
2018-02-10T14:34:48.459Z,65.83
2018-02-10T14:37:16.498Z,74.87
2018-02-10T14:39:45.250Z,68.47
2018-02-10T14:42:13.977Z,70.10
2018-02-10T14:44:41.961Z,68.73
2018-02-10T14:47:09.985Z,61.90
2018-02-10T14:49:37.959Z,72.07
2018-02-10T14:52:05.930Z,69.90
2018-02-10T14:54:33.843Z,71.37
2018-02-10T14:57:01.765Z,66.60
2018-02-10T14:59:29.647Z,68.60
2018-02-10T15:01:58.390Z,62.53
2018-02-10T15:04:26.290Z,71.43
2018-02-10T15:06:55.026Z,81.23
2018-02-10T15:09:22.908Z,68.10
2018-02-10T15:11:50.808Z,70.37
2018-02-10T15:14:18.729Z,69.60
2018-02-10T15:16:46.691Z,70.87
2018-02-10T15:19:14.574Z,76.90
2018-02-10T15:21:42.451Z,79.40
2018-02-10T15:24:10.493Z,80.60
2018-02-10T15:26:38.453Z,82.53
2018-02-10T15:29:06.332Z,78.03
2018-02-10T15:31:46.078Z,80.63
2018-02-10T15:34:25.795Z,78.77
2018-02-10T15:36:54.493Z,85.83
2018-02-10T15:39:22.387Z,75.17
2018-02-10T15:41:50.287Z,71.17
2018-02-10T15:44:18.223Z,77.93
2018-02-10T15:46:46.111Z,70.70
2018-02-10T15:49:14.007Z,80.80
2018-02-10T15:51:42.747Z,77.47
2018-02-10T15:54:10.733Z,73.13
2018-02-10T15:56:38.635Z,80.20
2018-02-10T15:59:06.542Z,76.57
2018-02-10T16:01:34.416Z,85.35
2018-02-10T16:04:02.303Z,88.68
2018-02-10T16:06:30.206Z,79.68
2018-02-10T16:08:58.895Z,77.43
2018-02-10T16:11:26.808Z,80.53
2018-02-10T16:13:54.735Z,83.60
2018-02-10T16:16:22.705Z,92.25
2018-02-10T16:18:50.583Z,105.35
2018-02-10T16:21:18.456Z,86.75
2018-02-10T16:23:46.327Z,83.15
2018-02-10T16:26:14.300Z,87.70
2018-02-10T16:28:42.203Z,103.40
2018-02-10T16:31:10.071Z,88.12
2018-02-10T16:33:38.042Z,93.22
2018-02-10T16:36:05.944Z,97.53
2018-02-10T16:38:33.938Z,92.20
2018-02-10T16:41:01.955Z,89.32
2018-02-10T16:43:30.637Z,100.93
2018-02-10T16:45:58.535Z,87.70
2018-02-10T16:48:26.487Z,111.43
2018-02-10T16:50:55.158Z,98.45
2018-02-10T16:53:23.119Z,92.97
2018-02-10T16:58:24.972Z,106.25
2018-02-10T17:00:52.935Z,104.82
2018-02-10T17:03:20.852Z,116.50
2018-02-10T17:05:49.521Z,106.93
2018-02-10T17:08:17.554Z,111.78
2018-02-10T17:10:45.447Z,116.80
2018-02-10T17:13:13.408Z,113.57
2018-02-10T17:15:41.391Z,123.85
2018-02-10T17:18:09.312Z,128.00
2018-02-10T17:20:37.183Z,126.97
2018-02-10T17:23:05.071Z,139.20
2018-02-10T17:25:32.960Z,119.35
2018-02-10T17:28:00.922Z,155.63
2018-02-10T17:30:28.839Z,146.10
2018-02-10T17:32:56.719Z,124.70
2018-02-10T17:35:24.638Z,136.90
2018-02-10T17:37:52.535Z,130.68
2018-02-10T17:40:20.416Z,116.30
2018-02-10T17:42:48.378Z,128.38
2018-02-10T17:45:16.241Z,137.75
2018-02-10T17:47:45.088Z,139.23
2018-02-10T17:50:13.047Z,187.32
2018-02-10T17:52:40.952Z,131.43
2018-02-10T17:55:09.619Z,137.62
2018-02-10T17:57:37.523Z,176.98
2018-02-10T18:00:05.506Z,132.70
2018-02-10T18:02:33.475Z,131.63
2018-02-10T18:05:01.448Z,118.90
2018-02-10T18:07:29.341Z,138.62
2018-02-10T18:09:57.230Z,146.07
2018-02-10T18:12:25.906Z,220.02
2018-02-10T18:14:53.965Z,178.50
2018-02-10T18:17:21.854Z,159.95
2018-02-10T18:19:50.536Z,143.77
2018-02-10T18:22:19.230Z,133.45
2018-02-10T18:24:47.964Z,136.35
2018-02-10T18:27:15.848Z,149.43
2018-02-10T18:29:43.803Z,151.18
2018-02-10T18:32:11.695Z,152.07
2018-02-10T18:34:39.615Z,136.88
2018-02-10T18:37:07.551Z,145.12
2018-02-10T18:39:36.332Z,143.50
2018-02-10T18:42:05.007Z,137.65
2018-02-10T18:44:32.968Z,131.02
2018-02-10T18:47:00.881Z,151.02
2018-02-10T18:49:28.854Z,133.15
2018-02-10T18:51:56.734Z,142.27
2018-02-10T18:54:24.701Z,164.85
2018-02-10T18:56:52.613Z,152.93
2018-02-10T18:59:20.602Z,154.18
2018-02-10T19:01:49.268Z,154.40
2018-02-10T19:04:17.229Z,158.68
2018-02-10T19:06:45.145Z,146.05
2018-02-10T19:09:13.104Z,123.80
2018-02-10T19:11:41.789Z,143.07
2018-02-10T19:14:09.761Z,143.87
2018-02-10T19:16:37.732Z,152.52
2018-02-10T19:19:05.618Z,155.60
2018-02-10T19:21:33.537Z,173.65
2018-02-10T19:24:01.422Z,173.45
2018-02-10T19:26:30.118Z,149.80
2018-02-10T19:28:58.008Z,142.90
2018-02-10T19:31:25.975Z,138.00
2018-02-10T19:33:53.955Z,129.52
2018-02-10T19:36:21.939Z,110.05
2018-02-10T19:38:49.830Z,148.55
2018-02-10T19:41:17.780Z,144.98
2018-02-10T19:43:45.675Z,157.12
2018-02-10T19:46:14.408Z,145.65
2018-02-10T19:48:42.364Z,143.40
2018-02-10T19:51:10.356Z,139.25
2018-02-10T19:53:38.359Z,137.98
2018-02-10T19:56:06.329Z,155.65
2018-02-10T19:58:34.282Z,166.95
2018-02-10T20:01:02.206Z,169.45
2018-02-10T20:03:30.182Z,155.65
2018-02-10T20:05:58.103Z,165.45
2018-02-10T20:08:25.992Z,158.10
2018-02-10T20:10:53.962Z,153.43
2018-02-10T20:13:21.922Z,158.85
2018-02-10T20:15:50.635Z,162.12
2018-02-10T20:18:18.650Z,154.15
2018-02-10T20:20:46.601Z,155.77
2018-02-10T20:23:14.528Z,166.20
2018-02-10T20:25:42.400Z,164.85
2018-02-10T20:28:10.263Z,171.10
2018-02-10T20:30:38.153Z,167.52
2018-02-10T20:33:06.074Z,157.77
2018-02-10T20:35:34.746Z,155.57
2018-02-10T20:38:02.730Z,168.57
2018-02-10T20:40:31.383Z,173.82
2018-02-10T20:42:59.292Z,171.35
2018-02-10T20:45:27.236Z,156.57
2018-02-10T20:47:55.233Z,213.48
2018-02-10T20:50:23.209Z,169.00
2018-02-10T20:52:51.127Z,184.07
2018-02-10T20:55:18.995Z,175.52
2018-02-10T20:57:46.902Z,157.37
2018-02-10T21:00:14.776Z,166.93
2018-02-10T21:02:42.671Z,143.90
2018-02-10T21:05:10.558Z,158.07
2018-02-10T21:07:38.429Z,151.85
2018-02-10T21:10:06.391Z,138.98
2018-02-10T21:12:34.268Z,135.60
2018-02-10T21:15:02.197Z,132.05
2018-02-10T21:17:30.095Z,144.87
2018-02-10T21:19:58.059Z,163.50
2018-02-10T21:22:25.951Z,154.57
2018-02-10T21:24:53.831Z,150.15
2018-02-10T21:27:22.524Z,155.18
2018-02-10T21:29:51.203Z,148.13
2018-02-10T21:32:19.984Z,161.73
2018-02-10T21:34:48.636Z,140.95
2018-02-10T21:37:16.647Z,141.20
2018-02-10T21:39:45.311Z,154.25
2018-02-10T21:42:13.186Z,159.75
2018-02-10T21:44:41.919Z,156.60
2018-02-10T21:47:09.795Z,152.02
2018-02-10T21:49:37.682Z,139.12
2018-02-10T21:52:05.556Z,144.07
2018-02-10T21:54:33.445Z,139.05
2018-02-10T21:57:02.100Z,158.65
2018-02-10T21:59:30.054Z,166.02
2018-02-10T22:01:57.954Z,164.55
2018-02-10T22:04:25.845Z,152.40
2018-02-10T22:06:53.733Z,176.20
2018-02-10T22:09:21.648Z,149.40
2018-02-10T22:11:49.566Z,140.35
2018-02-10T22:14:17.476Z,129.75
2018-02-10T22:16:45.343Z,149.05
2018-02-10T22:19:13.217Z,150.27
2018-02-10T22:21:41.079Z,141.02
2018-02-10T22:24:09.046Z,158.60
2018-02-10T22:26:36.995Z,135.25
2018-02-10T22:29:04.963Z,136.65
2018-02-10T22:31:32.927Z,141.07
2018-02-10T22:34:00.887Z,141.27
2018-02-10T22:36:28.793Z,129.02
2018-02-10T22:38:56.763Z,148.27
2018-02-10T22:41:24.694Z,128.52
2018-02-10T22:43:52.644Z,152.32
2018-02-10T22:46:20.610Z,141.52
2018-02-10T22:48:48.575Z,155.40
2018-02-10T22:51:16.486Z,157.65
2018-02-10T22:53:44.400Z,142.65
2018-02-10T22:56:12.397Z,156.60
2018-02-10T22:58:40.262Z,120.25
2018-02-10T23:01:13.935Z,140.68
2018-02-10T23:03:42.590Z,145.93
2018-02-10T23:06:10.547Z,134.90
2018-02-10T23:08:38.503Z,136.98
2018-02-10T23:11:06.464Z,161.05
2018-02-10T23:13:34.362Z,138.20
2018-02-10T23:16:02.271Z,146.77
2018-02-10T23:18:30.242Z,117.93
2018-02-10T23:20:58.121Z,137.10
2018-02-10T23:23:26.039Z,126.10
2018-02-10T23:25:54.005Z,132.35
2018-02-10T23:28:21.891Z,135.15
2018-02-10T23:30:50.532Z,123.25
2018-02-10T23:33:18.425Z,130.00
2018-02-10T23:35:46.379Z,150.02
2018-02-10T23:38:14.348Z,133.50
2018-02-10T23:40:42.255Z,128.60
2018-02-10T23:43:11.105Z,132.93
2018-02-10T23:45:39.005Z,121.87
2018-02-10T23:48:07.677Z,126.22
2018-02-10T23:50:36.371Z,133.75
2018-02-10T23:53:05.034Z,128.18
2018-02-10T23:55:32.963Z,130.02
2018-02-10T23:58:00.843Z,129.43
